Time;durP1;ratioP1;P1;durP2;ratioP2;P2;SDS_P1;SDS_P2;PMS_P1;PMS_P2;Temp;Humidity;BMP_temperature;BMP_pressure;BME280_temperature;BME280_humidity;BME280_pressure;Samples;Min_cycle;Max_cycle;Signal;HPM_P1;HPM_P2
2024/04/12 00:00:59;;;;;;;;;17.00;15.25;;;;;15.92;79.78;102689.50;5471703;25;43766;-49
2024/04/12 00:03:24;;;;;;;;;18.50;18.50;;;;;15.89;80.19;102685.16;5490975;25;44248;-54
2024/04/12 00:05:50;;;;;;;;;20.00;17.50;;;;;15.88;80.35;102686.06;5469103;25;43772;-54
2024/04/12 00:08:16;;;;;;;;;24.00;21.00;;;;;15.86;80.53;102682.56;5496341;25;44768;-54
2024/04/12 00:10:41;;;;;;;;;19.75;18.50;;;;;15.84;80.83;102679.06;5477958;25;43865;-56
2024/04/12 00:13:07;;;;;;;;;19.00;16.25;;;;;15.82;81.06;102672.09;5505311;25;44031;-53
2024/04/12 00:15:33;;;;;;;;;21.00;16.75;;;;;15.82;80.24;102685.28;5488419;25;44010;-53
2024/04/12 00:17:59;;;;;;;;;17.25;16.50;;;;;15.80;81.62;102685.31;5491019;25;44696;-54
2024/04/12 00:20:28;;;;;;;;;17.25;16.25;;;;;15.77;81.13;102664.25;5503389;25;48480;-54
2024/04/12 00:22:55;;;;;;;;;12.25;11.00;;;;;15.77;81.16;102668.66;5481554;25;44034;-51
2024/04/12 00:25:23;;;;;;;;;17.00;15.00;;;;;15.75;82.18;102666.91;5504987;25;43622;-51
2024/04/12 00:27:48;;;;;;;;;17.75;16.00;;;;;15.74;81.45;102675.75;5483626;25;44728;-53
2024/04/12 00:30:37;;;;;;;;;20.50;16.50;;;;;15.72;82.23;102682.78;5500590;25;44124;-56
2024/04/12 00:33:00;;;;;;;;;13.50;11.50;;;;;15.70;82.13;102676.63;5477412;25;43852;-54
2024/04/12 00:35:34;;;;;;;;;14.75;13.75;;;;;15.69;81.72;102676.69;5483683;25;43804;-54
2024/04/12 00:38:03;;;;;;;;;14.00;13.50;;;;;15.63;81.91;102672.38;5479716;25;43965;-54
2024/04/12 00:40:32;;;;;;;;;14.25;10.00;;;;;15.65;82.35;102670.59;5473254;25;43687;-53
2024/04/12 00:43:11;;;;;;;;;15.25;12.00;;;;;15.63;81.45;102671.50;5472700;25;43769;-55
2024/04/12 00:45:41;;;;;;;;;15.50;15.00;;;;;15.62;82.90;102665.34;5488955;25;43990;-55
2024/04/12 00:48:09;;;;;;;;;16.50;13.50;;;;;15.59;81.82;102670.69;5475215;25;46407;-53
2024/04/12 00:50:37;;;;;;;;;18.50;16.00;;;;;15.60;82.38;102679.47;5494167;25;43955;-53
2024/04/12 00:53:06;;;;;;;;;17.25;15.00;;;;;15.58;82.43;102666.28;5498457;25;43799;-53
2024/04/12 00:55:35;;;;;;;;;18.50;15.75;;;;;15.57;82.16;102673.34;5493157;25;43710;-54
2024/04/12 00:58:00;;;;;;;;;17.25;15.00;;;;;15.55;83.07;102667.22;5466009;25;45244;-53
2024/04/12 01:00:35;;;;;;;;;19.75;16.75;;;;;15.54;82.61;102664.59;5475143;25;44076;-55
2024/04/12 01:03:05;;;;;;;;;18.00;15.75;;;;;15.50;82.74;102653.25;5482751;25;43909;-55
2024/04/12 01:05:32;;;;;;;;;20.75;17.25;;;;;15.50;82.12;102658.50;5467557;25;43937;-55
2024/04/12 01:08:00;;;;;;;;;17.00;14.50;;;;;15.50;83.40;102655.00;5468417;25;45975;-54
2024/04/12 01:10:26;;;;;;;;;17.25;15.50;;;;;15.49;83.10;102659.44;5496316;25;44409;-52
2024/04/12 01:12:55;;;;;;;;;19.50;16.75;;;;;15.46;83.37;102656.84;5490662;25;43966;-56
2024/04/12 01:15:23;;;;;;;;;20.75;15.50;;;;;15.47;83.19;102662.97;5488203;25;43952;-55
2024/04/12 01:17:49;;;;;;;;;22.75;17.25;;;;;15.47;83.33;102665.59;5481257;25;44002;-51
2024/04/12 01:20:16;;;;;;;;;19.00;16.25;;;;;15.47;82.67;102666.47;5503517;25;44348;-54
2024/04/12 01:22:44;;;;;;;;;21.00;15.75;;;;;15.46;82.35;102667.38;5457008;25;43926;-53
2024/04/12 01:25:10;;;;;;;;;16.75;16.50;;;;;15.45;82.67;102673.53;5502325;25;43793;-54
2024/04/12 01:27:38;;;;;;;;;17.25;15.25;;;;;15.44;83.04;102673.56;5481410;25;43917;-53
2024/04/12 01:30:04;;;;;;;;;20.25;17.75;;;;;15.42;84.19;102665.69;5478716;25;43814;-54
2024/04/12 01:32:30;;;;;;;;;15.50;14.75;;;;;15.42;83.53;102656.91;5470960;25;43788;-51
2024/04/12 01:34:55;;;;;;;;;13.75;13.50;;;;;15.43;84.03;102656.00;5500185;25;44024;-52
2024/04/12 01:37:21;;;;;;;;;19.00;13.00;;;;;15.42;84.29;102654.25;5501622;25;44707;-55
2024/04/12 01:39:49;;;;;;;;;17.75;14.00;;;;;15.41;84.34;102647.25;5503678;25;43752;-53
2024/04/12 01:42:18;;;;;;;;;17.75;15.00;;;;;15.38;83.21;102642.88;5503965;25;43811;-53
2024/04/12 01:45:13;;;;;;;;;15.25;12.75;;;;;15.37;83.89;102639.38;5499552;25;44046;-52
2024/04/12 01:47:34;;;;;;;;;13.50;12.25;;;;;15.35;83.56;102635.91;5473463;25;44948;-53
2024/04/12 01:50:02;;;;;;;;;15.00;13.50;;;;;15.33;83.20;102635.06;5466901;25;44003;-53
2024/04/12 01:52:27;;;;;;;;;20.00;16.00;;;;;15.32;84.32;102635.94;5488372;25;43951;-52
2024/04/12 01:55:05;;;;;;;;;16.75;14.50;;;;;15.34;84.26;102630.66;5467043;25;43981;-53
2024/04/12 01:57:31;;;;;;;;;14.50;14.50;;;;;15.33;83.52;102632.44;5467859;25;44005;-54
2024/04/12 01:59:56;;;;;;;;;13.50;12.00;;;;;15.34;83.81;102628.00;5476392;25;43886;-51
2024/04/12 02:02:21;;;;;;;;;17.00;14.00;;;;;15.31;83.91;102615.72;5483515;25;68068;-53
2024/04/12 02:04:55;;;;;;;;;17.75;14.00;;;;;15.30;83.50;102619.28;5485398;25;43893;-54
2024/04/12 02:07:26;;;;;;;;;13.50;12.00;;;;;15.27;84.34;102618.47;5493731;25;44746;-54
2024/04/12 02:09:58;;;;;;;;;16.75;14.00;;;;;15.27;84.27;102624.59;5480272;25;43882;-55
2024/04/12 02:12:26;;;;;;;;;17.25;15.00;;;;;15.28;83.92;102628.09;5468041;25;43691;-53
2024/04/12 02:14:54;;;;;;;;;16.50;14.00;;;;;15.26;83.99;102621.97;5483140;25;43655;-55
2024/04/12 02:17:19;;;;;;;;;17.25;15.00;;;;;15.24;84.56;102622.00;5476885;25;45939;-54
2024/04/12 02:19:46;;;;;;;;;15.50;14.50;;;;;15.21;83.69;102615.91;5491006;25;47842;-55
2024/04/12 02:22:12;;;;;;;;;18.00;14.75;;;;;15.21;83.81;102608.88;5466701;25;43937;-52
2024/04/12 02:24:40;;;;;;;;;16.00;13.00;;;;;15.19;83.83;102614.19;5465125;25;43884;-54
2024/04/12 02:27:06;;;;;;;;;13.00;13.00;;;;;15.18;84.81;102615.06;5475409;25;43842;-55
2024/04/12 02:29:31;;;;;;;;;17.00;12.00;;;;;15.18;84.61;102609.78;5466905;25;43736;-56
2024/04/12 02:31:56;;;;;;;;;12.00;12.00;;;;;15.18;84.36;102609.78;5485929;25;64512;-53
2024/04/12 02:34:24;;;;;;;;;16.50;12.25;;;;;15.17;83.88;102615.09;5465068;25;69237;-52
2024/04/12 02:36:49;;;;;;;;;16.00;12.50;;;;;15.17;83.91;102615.97;5495594;25;44820;-54
2024/04/12 02:39:22;;;;;;;;;12.75;12.25;;;;;15.15;85.15;102614.25;5495361;25;44392;-54
2024/04/12 02:41:47;;;;;;;;;14.00;11.00;;;;;15.17;85.12;102626.53;5475714;25;43980;-53
2024/04/12 02:44:13;;;;;;;;;16.50;13.00;;;;;15.16;84.28;102623.91;5469885;25;43979;-55
2024/04/12 02:46:38;;;;;;;;;14.00;13.00;;;;;15.16;84.96;102624.78;5494639;25;44872;-54
2024/04/12 02:49:07;;;;;;;;;18.25;16.25;;;;;15.16;83.97;102626.56;5502687;25;64839;-54
2024/04/12 02:51:32;;;;;;;;;13.75;11.00;;;;;15.17;84.16;102625.63;5490250;25;43726;-53
2024/04/12 02:53:58;;;;;;;;;16.25;13.50;;;;;15.15;84.85;102623.03;5465593;25;65771;-54
2024/04/12 02:56:24;;;;;;;;;16.00;14.25;;;;;15.14;84.14;102628.34;5472014;25;73401;-53
2024/04/12 02:58:52;;;;;;;;;14.25;13.75;;;;;15.11;85.14;102621.34;5466573;25;43759;-51
2024/04/12 03:01:24;;;;;;;;;16.00;14.00;;;;;15.09;84.12;102623.13;5466624;25;43825;-53
2024/04/12 03:03:55;;;;;;;;;15.75;13.50;;;;;15.08;84.92;102623.16;5466967;25;43742;-53
2024/04/12 03:06:23;;;;;;;;;17.75;14.75;;;;;15.04;84.28;102624.09;5476692;25;44903;-54
2024/04/12 03:08:49;;;;;;;;;20.25;14.00;;;;;15.01;84.75;102625.00;5500329;25;44400;-53
2024/04/12 03:11:22;;;;;;;;;18.25;15.25;;;;;15.00;84.50;102628.56;5490641;25;43905;-54
2024/04/12 03:13:47;;;;;;;;;14.50;12.75;;;;;14.99;85.00;102632.06;5489003;25;43930;-53
2024/04/12 03:16:13;;;;;;;;;14.67;14.67;;;;;14.97;84.70;102633.88;5469829;25;73183;-54
2024/04/12 03:18:41;;;;;;;;;15.75;14.50;;;;;14.95;85.11;102633.03;5502045;25;44418;-55
2024/04/12 03:21:06;;;;;;;;;21.00;16.00;;;;;14.94;85.18;102628.63;5497027;25;43978;-53
2024/04/12 03:23:31;;;;;;;;;19.00;17.50;;;;;14.91;85.48;102632.19;5465592;25;54476;-54
2024/04/12 03:25:57;;;;;;;;;15.00;14.50;;;;;14.89;85.66;102625.19;5468203;25;67351;-55
2024/04/12 03:28:23;;;;;;;;;18.50;15.75;;;;;14.87;84.50;102635.75;5493371;25;72028;-53
2024/04/12 03:30:48;;;;;;;;;23.00;18.75;;;;;14.84;85.72;102633.19;5490426;25;43883;-55
2024/04/12 03:33:13;;;;;;;;;18.00;17.50;;;;;14.83;85.99;102638.47;5485746;25;43997;-54
2024/04/12 03:35:39;;;;;;;;;17.00;15.75;;;;;14.79;84.89;102637.66;5478125;25;43786;-55
2024/04/12 03:40:58;;;;;;;;;17.25;15.75;;;;;14.77;86.19;102637.66;5498749;25;43903;-55
2024/04/12 03:43:23;;;;;;;;;19.75;15.25;;;;;14.75;85.94;102639.44;5477132;25;43768;-54
2024/04/12 03:45:58;;;;;;;;;15.00;13.75;;;;;14.71;86.06;102626.31;5498096;25;74212;-55
2024/04/12 03:48:24;;;;;;;;;11.75;9.00;;;;;14.73;85.24;102630.69;5470755;25;44408;-53
2024/04/12 03:50:59;;;;;;;;;11.75;10.50;;;;;14.73;85.83;102635.97;5476113;25;44020;-55
2024/04/12 03:53:30;;;;;;;;;14.00;13.75;;;;;14.73;85.46;102638.59;5502501;25;43976;-52
2024/04/12 03:55:55;;;;;;;;;13.75;13.75;;;;;14.72;85.98;102623.69;5481578;25;44813;-54
2024/04/12 03:58:22;;;;;;;;;18.50;15.50;;;;;14.73;86.39;102629.81;5492077;25;62896;-52
2024/04/12 04:00:48;;;;;;;;;14.00;13.25;;;;;14.71;86.14;102624.56;5472435;25;43827;-54
2024/04/12 04:03:32;;;;;;;;;15.00;13.25;;;;;14.71;86.13;102623.69;5465229;25;43765;-54
2024/04/12 04:06:11;;;;;;;;;15.00;14.00;;;;;14.71;85.62;102626.31;5476139;25;45290;-55
2024/04/12 04:08:48;;;;;;;;;14.75;12.75;;;;;14.68;85.57;102616.72;5490275;25;44490;-52
2024/04/12 04:11:17;;;;;;;;;15.25;14.00;;;;;14.68;85.80;102624.63;5468657;25;43732;-53
2024/04/12 04:13:44;;;;;;;;;17.00;15.25;;;;;14.68;86.03;102624.63;5465613;25;43796;-51
2024/04/12 04:16:10;;;;;;;;;16.50;15.75;;;;;14.67;85.70;102625.50;5470983;25;45613;-54
2024/04/12 04:18:35;;;;;;;;;17.50;14.00;;;;;14.66;85.39;102622.88;5500672;25;43775;-52
2024/04/12 04:21:07;;;;;;;;;17.75;12.75;;;;;14.66;85.31;102623.78;5495988;25;43943;-55
2024/04/12 04:23:38;;;;;;;;;14.50;11.75;;;;;14.66;85.98;102622.88;5481141;25;44854;-52
2024/04/12 04:26:08;;;;;;;;;17.00;14.75;;;;;14.66;85.39;102625.50;5469755;25;44872;-50
2024/04/12 04:28:34;;;;;;;;;19.00;14.75;;;;;14.65;86.21;102623.78;5501714;25;43856;-48
2024/04/12 04:31:05;;;;;;;;;15.50;14.75;;;;;14.65;85.31;102623.78;5467686;25;43992;-51
2024/04/12 04:33:34;;;;;;;;;16.75;12.75;;;;;14.63;85.64;102615.91;5481942;25;43771;-51
2024/04/12 04:36:08;;;;;;;;;15.50;13.00;;;;;14.61;85.22;102618.56;5464720;25;45073;-51
2024/04/12 04:38:36;;;;;;;;;17.75;15.25;;;;;14.60;85.35;102622.06;5464144;25;44351;-54
2024/04/12 04:41:06;;;;;;;;;14.50;14.50;;;;;14.60;86.16;102624.69;5472859;25;43873;-54
2024/04/12 04:43:32;;;;;;;;;18.50;14.00;;;;;14.59;85.94;102630.03;5464428;25;43742;-55
2024/04/12 04:46:09;;;;;;;;;17.75;13.50;;;;;14.57;85.46;102626.47;5495097;25;45845;-55
2024/04/12 04:48:35;;;;;;;;;17.00;14.00;;;;;14.56;85.86;102630.03;5491110;25;44478;-53
2024/04/12 04:51:02;;;;;;;;;16.50;13.75;;;;;14.55;85.84;102629.13;5501821;25;43827;-54
2024/04/12 04:53:29;;;;;;;;;13.00;11.00;;;;;14.54;85.48;102632.66;5468423;25;43742;-54
2024/04/12 04:56:00;;;;;;;;;14.00;13.50;;;;;14.54;86.09;102634.44;5490720;25;44090;-54
2024/04/12 04:58:28;;;;;;;;;12.75;12.00;;;;;14.53;86.06;102635.31;5471058;25;44559;-53
2024/04/12 05:00:53;;;;;;;;;14.25;13.50;;;;;14.52;85.90;102630.94;5480164;25;43884;-54
2024/04/12 05:03:18;;;;;;;;;16.25;12.75;;;;;14.52;86.12;102626.56;5467073;25;72161;-54
2024/04/12 05:05:44;;;;;;;;;14.75;13.00;;;;;14.52;85.30;102636.19;5468884;25;43927;-54
2024/04/12 05:08:09;;;;;;;;;15.75;13.25;;;;;14.51;86.10;102634.47;5492671;25;68774;-51
2024/04/12 05:10:34;;;;;;;;;18.50;14.50;;;;;14.50;85.56;102636.25;5483424;25;43951;-53
2024/04/12 05:13:03;;;;;;;;;18.75;14.50;;;;;14.49;86.52;102638.91;5475787;25;71067;-54
2024/04/12 05:18:08;;;;;;;;;14.50;14.50;;;;;14.49;86.52;102636.25;5468711;25;44349;-51
2024/04/12 05:20:40;;;;;;;;;19.25;15.00;;;;;14.47;86.46;102630.16;5478523;25;43734;-51
2024/04/12 05:23:11;;;;;;;;;16.75;16.00;;;;;14.46;85.38;102634.53;5473026;25;43930;-52
2024/04/12 05:25:40;;;;;;;;;16.00;13.75;;;;;14.44;86.28;102636.31;5486278;25;45675;-54
2024/04/12 05:28:06;;;;;;;;;16.25;11.50;;;;;14.43;86.34;102638.09;5476738;25;43821;-54
2024/04/12 05:30:36;;;;;;;;;15.75;13.75;;;;;14.43;86.40;102640.72;5474566;25;44033;-54
2024/04/12 05:33:05;;;;;;;;;16.25;13.50;;;;;14.46;86.28;102636.28;5480431;25;44469;-54
2024/04/12 05:35:30;;;;;;;;;18.75;15.75;;;;;14.46;86.29;102641.56;5496187;25;45926;-55
2024/04/12 05:37:58;;;;;;;;;17.25;13.50;;;;;14.48;85.94;102648.53;5476708;25;43965;-52
2024/04/12 05:40:25;;;;;;;;;18.75;15.00;;;;;14.47;86.03;102662.63;5487999;25;43903;-53
2024/04/12 05:42:51;;;;;;;;;19.50;15.25;;;;;14.48;85.52;102664.34;5496301;25;44563;-53
2024/04/12 05:45:19;;;;;;;;;16.75;15.00;;;;;14.49;86.05;102652.06;5492272;25;47290;-54
2024/04/12 05:47:53;;;;;;;;;17.50;15.75;;;;;14.51;86.39;102664.31;5502021;25;43918;-54
2024/04/12 05:50:19;;;;;;;;;14.50;13.25;;;;;14.49;85.57;102655.56;5480846;25;44005;-54
2024/04/12 05:52:44;;;;;;;;;17.00;15.50;;;;;14.54;85.37;102656.38;5494555;25;71126;-54
2024/04/12 05:55:13;;;;;;;;;19.75;16.00;;;;;14.58;85.50;102649.34;5493741;25;73058;-55
2024/04/12 05:57:39;;;;;;;;;19.25;16.00;;;;;14.61;86.22;102657.22;5466569;25;43733;-54
2024/04/12 06:00:09;;;;;;;;;19.00;16.50;;;;;14.62;86.17;102656.31;5467883;25;43923;-55
2024/04/12 06:02:36;;;;;;;;;21.50;16.25;;;;;14.67;86.21;102664.16;5479089;25;43983;-53
2024/04/12 06:05:05;;;;;;;;;18.50;17.50;;;;;14.69;85.59;102660.59;5483535;25;45649;-54
2024/04/12 06:07:35;;;;;;;;;19.00;17.00;;;;;14.75;84.86;102667.56;5503540;25;43882;-53
2024/04/12 06:10:01;;;;;;;;;16.50;14.75;;;;;14.79;85.39;102661.38;5478910;25;44044;-58
2024/04/12 06:12:33;;;;;;;;;17.50;14.00;;;;;14.81;85.64;102659.56;5495218;25;43994;-60
2024/04/12 06:15:04;;;;;;;;;19.50;16.00;;;;;14.92;85.31;102672.59;5499615;25;46310;-53
2024/04/12 06:17:29;;;;;;;;;16.00;15.00;;;;;14.96;84.72;102669.00;5465907;25;43872;-56
2024/04/12 06:19:59;;;;;;;;;23.00;16.50;;;;;15.00;84.61;102668.97;5481443;25;43891;-56
2024/04/12 06:22:26;;;;;;;;;16.50;15.00;;;;;15.06;85.21;102675.03;5466605;25;43916;-57
2024/04/12 06:24:52;;;;;;;;;18.50;15.25;;;;;15.11;84.84;102676.72;5501281;25;43975;-59
2024/04/12 06:27:29;;;;;;;;;16.25;14.25;;;;;15.17;84.32;102678.38;5489889;25;43876;-53
2024/04/12 06:29:59;;;;;;;;;21.25;17.25;;;;;15.24;83.44;102672.13;5469745;25;44185;-52
2024/04/12 06:32:28;;;;;;;;;17.75;16.00;;;;;15.32;84.07;102672.88;5485035;25;44488;-53
2024/04/12 06:34:53;;;;;;;;;18.00;16.00;;;;;15.39;84.11;102668.38;5477977;25;43973;-56
2024/04/12 06:37:21;;;;;;;;;24.00;19.50;;;;;15.46;83.60;102674.44;5502856;25;43884;-58
2024/04/12 06:39:49;;;;;;;;;24.25;20.00;;;;;15.52;84.08;102677.81;5482544;25;43626;-54
2024/04/12 06:42:17;;;;;;;;;23.25;20.50;;;;;15.56;83.51;102668.09;5482674;25;45068;-59
2024/04/12 06:44:52;;;;;;;;;23.25;18.75;;;;;15.64;82.88;102683.81;5473680;25;45541;-60
2024/04/12 06:47:18;;;;;;;;;17.50;16.75;;;;;15.70;82.42;102684.56;5499112;25;43986;-60
2024/04/12 06:49:46;;;;;;;;;24.75;20.50;;;;;15.78;82.17;102679.19;5493348;25;43850;-54
2024/04/12 06:52:14;;;;;;;;;20.25;19.00;;;;;15.88;82.48;102675.50;5500767;25;43927;-55
2024/04/12 06:54:41;;;;;;;;;23.50;17.25;;;;;15.98;81.91;102684.09;5464558;25;45217;-55
2024/04/12 06:57:09;;;;;;;;;18.75;15.00;;;;;16.06;82.10;102683.94;5490855;25;44311;-57
2024/04/12 06:59:35;;;;;;;;;19.25;16.50;;;;;16.16;80.59;102692.59;5494010;25;44133;-55
2024/04/12 07:02:05;;;;;;;;;20.50;17.50;;;;;16.22;80.78;102682.78;5488022;25;43891;-57
2024/04/12 07:04:31;;;;;;;;;15.75;15.75;;;;;16.35;80.56;102686.06;5467665;25;44023;-57
2024/04/12 07:06:56;;;;;;;;;20.50;16.75;;;;;16.44;79.84;102685.84;5485805;25;43822;-56
2024/04/12 07:09:22;;;;;;;;;18.75;16.75;;;;;16.54;80.84;102690.94;5489510;25;44405;-58
2024/04/12 07:11:51;;;;;;;;;21.75;18.00;;;;;16.59;79.52;102689.09;5466542;25;44042;-54
2024/04/12 07:14:22;;;;;;;;;20.00;15.75;;;;;16.66;79.59;102683.66;5501248;25;45993;-56
2024/04/12 07:16:53;;;;;;;;;15.00;14.00;;;;;16.75;78.77;102684.34;5494444;25;43894;-59
2024/04/12 07:19:23;;;;;;;;;23.25;18.25;;;;;16.83;78.88;102682.41;5502809;25;43911;-58
2024/04/12 07:21:54;;;;;;;;;25.00;15.00;;;;;16.94;79.32;102690.13;5465875;25;43880;-57
2024/04/12 07:24:22;;;;;;;;;21.75;17.75;;;;;17.00;78.76;102690.00;5466018;25;43777;-58
2024/04/12 07:26:47;;;;;;;;;18.75;15.25;;;;;17.04;77.71;102692.53;5466137;25;44406;-57
2024/04/12 07:29:13;;;;;;;;;15.00;14.75;;;;;17.14;77.82;102695.84;5476108;25;43739;-58
2024/04/12 07:31:38;;;;;;;;;15.00;13.25;;;;;17.21;77.43;102678.94;5485235;25;44287;-58
2024/04/12 07:34:07;;;;;;;;;15.50;14.50;;;;;17.29;76.39;102678.72;5498932;25;43784;-58
2024/04/12 07:36:33;;;;;;;;;13.00;10.25;;;;;17.34;76.73;102681.28;5502815;25;44450;-58
2024/04/12 07:39:07;;;;;;;;;14.25;11.75;;;;;17.38;75.58;102693.53;5502533;25;43748;-57
2024/04/12 07:41:42;;;;;;;;;17.50;14.25;;;;;17.46;76.62;102684.50;5497653;25;43851;-56
2024/04/12 07:44:12;;;;;;;;;19.25;14.50;;;;;17.47;75.51;102680.06;5492768;25;45047;-57
2024/04/12 07:46:38;;;;;;;;;12.00;12.00;;;;;17.57;76.11;102681.56;5499440;25;43984;-58
2024/04/12 07:49:04;;;;;;;;;13.50;13.50;;;;;17.61;74.48;102683.22;5502114;25;43968;-59
2024/04/12 07:51:31;;;;;;;;;17.25;14.25;;;;;17.65;75.31;102679.59;5499348;25;43772;-58
2024/04/12 07:54:03;;;;;;;;;17.50;12.75;;;;;17.70;74.35;102678.63;5477629;25;45821;-58
2024/04/12 07:56:37;;;;;;;;;15.75;12.00;;;;;17.72;74.87;102680.28;5465145;25;43833;-57
2024/04/12 07:59:25;;;;;;;;;14.50;13.00;;;;;17.79;74.85;102671.28;5476179;25;43896;-60
2024/04/12 08:01:52;;;;;;;;;7.75;5.75;;;;;17.83;73.64;102678.25;5487890;25;44043;-62
2024/04/12 08:04:25;;;;;;;;;15.50;13.25;;;;;17.87;73.63;102671.13;5465555;25;44905;-57
2024/04/12 08:06:58;;;;;;;;;16.50;11.00;;;;;17.92;73.54;102676.28;5462889;25;43862;-56
2024/04/12 08:09:35;;;;;;;;;12.00;10.25;;;;;17.98;73.30;102676.13;5481368;25;43940;-57
2024/04/12 08:12:14;;;;;;;;;14.50;11.00;;;;;18.02;73.38;102675.13;5489236;25;44143;-58
2024/04/12 08:14:52;;;;;;;;;15.00;12.25;;;;;18.06;72.50;102670.63;5464811;25;45027;-58
2024/04/12 08:17:23;;;;;;;;;12.25;10.75;;;;;18.13;72.38;102677.47;5471399;25;43716;-58
2024/04/12 08:19:55;;;;;;;;;12.75;12.50;;;;;18.24;72.72;102688.69;5499633;25;43813;-59
2024/04/12 08:22:25;;;;;;;;;13.00;13.00;;;;;18.33;72.53;102688.41;5501204;25;44729;-58
2024/04/12 08:24:52;;;;;;;;;10.25;9.00;;;;;18.37;71.84;102686.53;5494817;25;43970;-59
2024/04/12 08:27:24;;;;;;;;;15.75;10.75;;;;;18.38;72.27;102688.28;5470585;25;43816;-57
2024/04/12 08:29:49;;;;;;;;;12.75;9.75;;;;;18.40;72.40;102694.41;5500251;25;43967;-57
2024/04/12 08:32:19;;;;;;;;;14.25;9.75;;;;;18.39;71.05;102687.34;5470769;25;43986;-56
2024/04/12 08:34:45;;;;;;;;;12.50;10.75;;;;;18.40;71.43;102694.41;5492982;25;44039;-56
2024/04/12 08:37:16;;;;;;;;;12.50;11.75;;;;;18.43;71.32;102693.44;5498670;25;44325;-59
2024/04/12 08:39:46;;;;;;;;;12.75;10.25;;;;;18.46;71.46;102688.91;5504561;25;43845;-56
2024/04/12 08:42:14;;;;;;;;;9.50;9.00;;;;;18.50;71.01;102689.69;5494256;25;43932;-59
2024/04/12 08:44:43;;;;;;;;;13.25;10.50;;;;;18.56;70.54;102684.22;5503103;25;44153;-57
2024/04/12 08:47:29;;;;;;;;;13.00;10.00;;;;;18.64;71.33;102689.28;5496892;25;43990;-58
2024/04/12 08:50:06;;;;;;;;;13.00;10.50;;;;;18.73;70.30;102689.00;5466227;26;43864;-57
2024/04/12 08:52:47;;;;;;;;;14.50;10.00;;;;;18.83;69.90;102692.31;5475316;25;43703;-56
2024/04/12 08:55:20;;;;;;;;;7.50;7.50;;;;;18.90;69.62;102691.19;5469680;25;45720;-58
2024/04/12 08:57:47;;;;;;;;;8.00;7.00;;;;;18.96;69.51;102693.66;5469510;25;44333;-55
2024/04/12 09:00:17;;;;;;;;;10.00;7.75;;;;;19.02;69.67;102687.31;5487211;25;44193;-54
2024/04/12 09:02:51;;;;;;;;;10.75;7.75;;;;;19.06;69.51;102687.16;5493197;25;43955;-53
2024/04/12 09:05:22;;;;;;;;;11.50;9.75;;;;;19.11;69.10;102684.34;5492587;25;43981;-53
2024/04/12 09:07:50;;;;;;;;;10.25;8.75;;;;;19.16;68.81;102685.09;5487827;25;43812;-55
2024/04/12 09:10:17;;;;;;;;;11.00;6.25;;;;;19.19;68.79;102682.31;5493841;25;43732;-55
2024/04/12 09:12:44;;;;;;;;;9.75;7.00;;;;;19.22;68.49;102687.53;5489256;25;43963;-51
2024/04/12 09:15:14;;;;;;;;;9.25;7.00;;;;;19.27;67.79;102680.28;5489973;25;44757;-57
2024/04/12 09:17:41;;;;;;;;;7.75;5.25;;;;;19.34;67.74;102678.31;5481079;25;43680;-60
2024/04/12 09:20:29;;;;;;;;;6.50;6.50;;;;;19.39;67.96;102675.47;5470720;25;44060;-53
2024/04/12 09:22:55;;;;;;;;;6.50;5.50;;;;;19.49;67.20;102674.25;5486116;25;43959;-54
2024/04/12 09:25:26;;;;;;;;;6.75;5.75;;;;;19.57;67.16;102685.50;5485512;25;45573;-52
2024/04/12 09:27:51;;;;;;;;;6.75;5.50;;;;;19.68;66.76;102682.47;5474691;25;44100;-54
2024/04/12 09:33:20;;;;;;;;;6.25;4.75;;;;;19.84;65.73;102678.41;5486019;25;43918;-61
2024/04/12 09:35:46;;;;;;;;;5.00;5.00;;;;;19.90;65.73;102686.16;5480408;25;44057;-51
2024/04/12 09:38:16;;;;;;;;;10.50;7.75;;;;;19.96;65.53;102685.06;5489804;25;44298;-54
2024/04/12 09:40:42;;;;;;;;;7.75;6.50;;;;;20.00;64.83;102685.84;5494745;25;44043;-55
2024/04/12 09:45:45;;;;;;;;;9.25;8.25;;;;;20.12;64.99;102685.41;5482140;25;44828;-53
2024/04/12 10:38:09;;;;;;;;;7.50;6.00;;;;;21.66;57.40;102666.09;5476642;25;43949;-48
2024/04/12 10:40:36;;;;;;;;;6.50;5.00;;;;;21.71;57.00;102665.88;5472681;25;44020;-58
2024/04/12 10:43:04;;;;;;;;;4.75;4.25;;;;;21.74;56.58;102668.41;5472926;25;43841;-52
2024/04/12 10:45:30;;;;;;;;;4.50;3.00;;;;;21.80;56.05;102668.16;5479258;25;44017;-54
2024/04/12 10:47:56;;;;;;;;;7.00;3.00;;;;;21.84;56.89;102659.09;5480301;25;47305;-53
2024/04/12 10:50:23;;;;;;;;;5.00;4.25;;;;;21.83;56.21;102654.69;5467201;25;45356;-51
2024/04/12 10:52:49;;;;;;;;;5.00;4.75;;;;;21.86;55.69;102651.88;5487610;25;43809;-54
2024/04/12 10:55:19;;;;;;;;;4.00;4.00;;;;;21.91;55.16;102647.22;5494335;25;43869;-55
2024/04/12 10:57:48;;;;;;;;;7.50;4.50;;;;;22.02;55.42;102653.88;5470410;25;43989;-49
2024/04/12 11:00:15;;;;;;;;;5.50;5.50;;;;;22.06;54.72;102653.69;5480132;25;44902;-52
2024/04/12 11:02:45;;;;;;;;;4.50;3.50;;;;;22.08;55.20;102649.13;5477505;25;44271;-52
2024/04/12 11:07:43;;;;;;;;;5.00;3.25;;;;;22.17;55.04;102651.38;5500466;25;44031;-53
2024/04/12 11:10:22;;;;;;;;;6.25;5.00;;;;;22.22;53.70;102632.50;5476915;25;43993;-55
2024/04/12 11:12:51;;;;;;;;;3.00;2.75;;;;;22.25;53.20;102626.16;5488755;25;45524;-57
2024/04/12 11:31:55;;;;;;;;;5.00;3.75;;;;;22.83;52.30;102619.91;5473451;25;43921;-47
2024/04/12 11:34:20;;;;;;;;;13.50;7.25;;;;;22.89;51.90;102617.78;5473570;25;44006;-51
2024/04/12 11:36:46;;;;;;;;;8.25;4.00;;;;;22.93;51.08;102607.84;5485232;25;43913;-54
2024/04/12 11:39:17;;;;;;;;;8.25;5.00;;;;;22.92;50.98;102600.75;5497528;25;43745;-58
2024/04/12 11:41:45;;;;;;;;;8.00;3.75;;;;;22.92;51.37;102606.94;5483481;25;45627;-46
2024/04/12 11:44:17;;;;;;;;;8.25;5.75;;;;;22.92;50.42;102600.75;5492125;25;43713;-55
2024/04/12 11:46:46;;;;;;;;;13.00;9.75;;;;;22.90;50.41;102595.47;5500119;25;43973;-54
2024/04/12 11:49:12;;;;;;;;;5.50;5.25;;;;;22.92;50.10;102590.94;5493820;25;44061;-61
2024/04/12 11:51:40;;;;;;;;;5.25;3.00;;;;;22.97;49.67;102597.88;5476162;25;44151;-61
2024/04/12 11:54:06;;;;;;;;;2.00;2.00;;;;;23.02;50.96;102587.78;5483121;25;43823;-60
2024/04/12 11:56:31;;;;;;;;;4.00;3.00;;;;;23.03;49.69;102581.53;5493570;25;65497;-61
2024/04/12 11:58:58;;;;;;;;;6.75;3.00;;;;;23.00;49.81;102587.00;5482581;25;72021;-59
2024/04/12 12:01:23;;;;;;;;;6.00;3.00;;;;;22.97;48.98;102590.72;5475749;25;45990;-58
2024/04/12 12:03:49;;;;;;;;;3.25;2.75;;;;;22.98;48.81;102592.41;5500185;25;43809;-56
2024/04/12 12:06:16;;;;;;;;;3.00;3.00;;;;;23.07;49.95;102586.69;5485018;25;43819;-61
2024/04/12 12:08:41;;;;;;;;;6.50;2.75;;;;;23.19;49.33;102590.50;5489841;25;43975;-58
2024/04/12 12:11:10;;;;;;;;;2.75;2.75;;;;;23.29;49.54;102573.06;5489544;25;43875;-58
2024/04/12 12:13:36;;;;;;;;;5.75;3.75;;;;;23.38;49.17;102581.56;5499287;25;44416;-59
2024/04/12 12:16:03;;;;;;;;;5.75;4.25;;;;;23.45;49.34;102580.31;5470811;25;44022;-58
2024/04/12 12:18:29;;;;;;;;;4.00;3.00;;;;;23.54;48.71;102568.28;5450058;26;43936;-57
2024/04/12 12:20:56;;;;;;;;;4.50;3.00;;;;;23.61;48.81;102565.19;5438612;25;43924;-58
2024/04/12 12:23:21;;;;;;;;;4.25;3.50;;;;;23.67;49.39;102572.88;5453320;26;44341;-57
2024/04/12 12:25:51;;;;;;;;;4.75;3.00;;;;;23.68;48.38;102568.41;5458551;25;46432;-55
2024/04/12 12:28:17;;;;;;;;;3.25;3.25;;;;;23.68;49.37;102558.56;5454298;26;44286;-51
2024/04/12 12:30:47;;;;;;;;;5.00;3.50;;;;;23.65;48.42;102561.38;5452554;26;43911;-54
2024/04/12 12:33:13;;;;;;;;;4.50;4.00;;;;;23.63;48.69;102544.56;5431351;26;44215;-56
2024/04/12 12:35:39;;;;;;;;;2.25;2.25;;;;;23.65;47.81;102555.19;5449807;25;44299;-56
2024/04/12 12:38:04;;;;;;;;;6.25;4.00;;;;;23.66;48.92;102547.09;5450441;26;45664;-56